Date,TemperatureHighF,TemperatureAvgF,TemperatureLowF,DewpointHighF,DewpointAvgF,DewpointLowF,HumidityHigh,HumidityAvg,HumidityLow,PressureMaxIn,PressureMinIn,WindSpeedMaxMPH,WindSpeedAvgMPH,GustSpeedMaxMPH,PrecipitationSumIn
2013-7-1,82,78,75,72,70,68,80,75,66,30.05,29.89,12,3,20,0.31
2013-7-2,87,77,72,72,69,67,83,75,62,30.22,30.05,8,2,17,1.16
2013-7-3,86,78,72,74,70,67,84,77,62,30.27,30.19,10,2,12,0.33
2013-7-4,89,81,75,73,70,68,84,71,58,30.30,30.21,7,2,12,0.01
2013-7-5,90,82,75,74,70,68,82,68,56,30.28,30.16,9,3,13,0.00
2013-7-6,90,82,75,72,69,67,78,67,55,30.24,30.12,10,3,13,0.00
2013-7-7,89,83,75,73,69,66,75,64,55,30.17,30.04,10,4,16,0.00
2013-7-8,86,80,76,71,69,67,74,67,62,30.14,30.07,8,4,14,0.00
2013-7-9,88,81,76,74,70,66,79,69,61,30.15,30.05,10,4,15,0.00
2013-7-10,90,82,76,75,70,67,79,69,61,30.09,29.93,11,5,17,0.00
2013-7-11,86,77,73,72,68,67,84,75,62,29.96,29.89,10,3,18,0.83
2013-7-12,81,75,73,70,68,66,85,78,64,30.02,29.88,4,1,9,0.56
2013-7-13,87,79,72,74,70,67,85,75,62,30.26,30.02,10,2,14,0.15
2013-7-14,87,81,76,74,71,69,84,72,61,30.32,30.24,4,1,8,0.00
2013-7-15,90,81,73,74,71,68,85,72,60,30.32,30.21,7,1,8,0.00
2013-7-16,93,84,78,77,71,67,71,64,58,30.22,30.13,8,1,11,0.00
2013-7-17,91,83,76,74,71,68,82,67,56,30.19,30.09,5,1,9,0.00
2013-7-18,93,84,75,76,71,67,78,66,57,30.12,30.03,6,1,8,0.00
2013-7-19,92,85,78,76,72,69,76,65,58,30.07,29.94,13,4,18,0.00
2013-7-20,90,84,77,75,71,69,75,66,61,29.99,29.88,11,6,17,0.00
2013-7-21,90,83,76,75,70,67,75,67,61,29.95,29.86,9,3,13,0.00
2013-7-22,88,80,76,74,71,68,84,75,62,29.93,29.80,9,1,18,1.16
2013-7-23,90,82,76,74,71,69,84,70,60,29.80,29.66,13,3,17,0.00
2013-7-24,92,82,77,74,70,68,76,66,50,29.81,29.68,8,2,14,0.00
2013-7-25,77,74,69,67,65,63,83,75,67,29.99,29.80,11,3,17,1.60
2013-7-26,83,74,68,67,63,60,83,69,47,30.08,29.98,7,2,10,0.00
2013-7-27,83,76,67,68,63,61,82,67,53,30.07,29.95,5,1,10,0.00
2013-7-28,87,79,72,71,68,64,82,70,58,29.99,29.91,7,1,11,0.00
2013-7-29,82,78,73,70,67,63,80,70,59,30.15,29.98,9,2,14,0.00
2013-7-30,84,77,68,66,63,60,83,64,47,30.21,30.13,7,1,8,0.00
2013-7-31,82,77,71,67,64,62,78,66,57,30.15,30.04,4,1,10,0.00